sensor_id;sensor_type;location;lat;lon;timestamp;P1;durP1;ratioP1;P2;durP2;ratioP2
61460;SDS011;47325;50.506;4.472;2022-11-03T00:02:49;7.00;;;2.10;;
61460;SDS011;47325;50.506;4.472;2022-11-03T00:08:34;9.00;;;2.20;;
61460;SDS011;47325;50.506;4.472;2022-11-03T00:14:25;6.90;;;2.20;;
61460;SDS011;47325;50.506;4.472;2022-11-03T00:20:19;7.20;;;2.20;;
61460;SDS011;47325;50.506;4.472;2022-11-03T00:26:10;6.60;;;1.90;;
61460;SDS011;47325;50.506;4.472;2022-11-03T00:31:54;7.70;;;2.00;;
61460;SDS011;47325;50.506;4.472;2022-11-03T00:37:39;6.50;;;2.00;;
61460;SDS011;47325;50.506;4.472;2022-11-03T00:43:27;5.20;;;1.90;;
61460;SDS011;47325;50.506;4.472;2022-11-03T00:49:12;6.80;;;2.10;;
61460;SDS011;47325;50.506;4.472;2022-11-03T00:54:57;5.30;;;2.10;;
61460;SDS011;47325;50.506;4.472;2022-11-03T01:00:50;6.20;;;2.00;;
61460;SDS011;47325;50.506;4.472;2022-11-03T01:06:45;5.80;;;2.10;;
61460;SDS011;47325;50.506;4.472;2022-11-03T01:12:33;7.00;;;2.00;;
61460;SDS011;47325;50.506;4.472;2022-11-03T01:18:23;6.40;;;2.20;;
61460;SDS011;47325;50.506;4.472;2022-11-03T01:24:07;6.80;;;2.10;;
61460;SDS011;47325;50.506;4.472;2022-11-03T01:29:55;5.50;;;2.00;;
61460;SDS011;47325;50.506;4.472;2022-11-03T01:35:44;5.00;;;1.80;;
61460;SDS011;47325;50.506;4.472;2022-11-03T01:41:28;6.00;;;2.20;;
61460;SDS011;47325;50.506;4.472;2022-11-03T01:47:23;7.50;;;2.10;;
61460;SDS011;47325;50.506;4.472;2022-11-03T01:53:14;8.30;;;2.20;;
61460;SDS011;47325;50.506;4.472;2022-11-03T01:59:15;8.40;;;2.20;;
61460;SDS011;47325;50.506;4.472;2022-11-03T02:05:05;6.30;;;2.10;;
61460;SDS011;47325;50.506;4.472;2022-11-03T02:10:49;6.30;;;2.20;;
61460;SDS011;47325;50.506;4.472;2022-11-03T02:16:38;7.70;;;2.10;;
61460;SDS011;47325;50.506;4.472;2022-11-03T02:22:38;7.70;;;1.90;;
61460;SDS011;47325;50.506;4.472;2022-11-03T02:28:36;5.30;;;1.80;;
61460;SDS011;47325;50.506;4.472;2022-11-03T02:34:26;6.90;;;2.10;;
61460;SDS011;47325;50.506;4.472;2022-11-03T02:40:15;6.50;;;2.00;;
61460;SDS011;47325;50.506;4.472;2022-11-03T02:46:02;5.20;;;1.90;;
61460;SDS011;47325;50.506;4.472;2022-11-03T02:58:09;7.90;;;2.10;;
61460;SDS011;47325;50.506;4.472;2022-11-03T03:04:02;6.20;;;2.00;;
61460;SDS011;47325;50.506;4.472;2022-11-03T03:09:50;6.00;;;2.10;;
61460;SDS011;47325;50.506;4.472;2022-11-03T03:15:40;8.80;;;2.20;;
61460;SDS011;47325;50.506;4.472;2022-11-03T03:21:34;5.20;;;2.20;;
61460;SDS011;47325;50.506;4.472;2022-11-03T03:27:23;5.70;;;1.90;;
61460;SDS011;47325;50.506;4.472;2022-11-03T03:33:21;6.60;;;2.10;;
61460;SDS011;47325;50.506;4.472;2022-11-03T03:39:20;4.30;;;2.00;;
61460;SDS011;47325;50.506;4.472;2022-11-03T03:45:06;7.60;;;2.00;;
61460;SDS011;47325;50.506;4.472;2022-11-03T03:50:52;6.30;;;1.80;;
61460;SDS011;47325;50.506;4.472;2022-11-03T03:56:44;5.50;;;1.70;;
61460;SDS011;47325;50.506;4.472;2022-11-03T04:02:37;6.10;;;1.90;;
61460;SDS011;47325;50.506;4.472;2022-11-03T04:08:28;4.10;;;1.70;;
61460;SDS011;47325;50.506;4.472;2022-11-03T04:14:15;5.50;;;1.80;;
61460;SDS011;47325;50.506;4.472;2022-11-03T04:20:05;7.00;;;2.00;;
61460;SDS011;47325;50.506;4.472;2022-11-03T04:25:54;4.80;;;1.70;;
61460;SDS011;47325;50.506;4.472;2022-11-03T04:31:46;6.60;;;2.00;;
61460;SDS011;47325;50.506;4.472;2022-11-03T04:37:36;6.60;;;1.70;;
61460;SDS011;47325;50.506;4.472;2022-11-03T04:43:34;8.20;;;2.00;;
61460;SDS011;47325;50.506;4.472;2022-11-03T04:49:29;4.20;;;1.70;;
61460;SDS011;47325;50.506;4.472;2022-11-03T04:55:17;5.70;;;2.00;;
61460;SDS011;47325;50.506;4.472;2022-11-03T05:01:02;5.10;;;1.80;;
61460;SDS011;47325;50.506;4.472;2022-11-03T05:06:51;7.30;;;1.70;;
61460;SDS011;47325;50.506;4.472;2022-11-03T05:12:45;7.60;;;1.90;;
61460;SDS011;47325;50.506;4.472;2022-11-03T05:18:33;6.50;;;1.80;;
61460;SDS011;47325;50.506;4.472;2022-11-03T05:24:23;5.20;;;1.70;;
61460;SDS011;47325;50.506;4.472;2022-11-03T05:30:11;4.50;;;1.70;;
61460;SDS011;47325;50.506;4.472;2022-11-03T05:36:06;4.70;;;1.90;;
61460;SDS011;47325;50.506;4.472;2022-11-03T05:42:04;5.80;;;1.80;;
61460;SDS011;47325;50.506;4.472;2022-11-03T05:48:04;4.10;;;1.40;;
61460;SDS011;47325;50.506;4.472;2022-11-03T05:53:54;4.00;;;1.50;;
61460;SDS011;47325;50.506;4.472;2022-11-03T05:59:49;5.20;;;1.80;;
61460;SDS011;47325;50.506;4.472;2022-11-03T06:05:35;6.60;;;1.70;;
61460;SDS011;47325;50.506;4.472;2022-11-03T06:11:25;5.50;;;1.80;;
61460;SDS011;47325;50.506;4.472;2022-11-03T06:17:09;7.80;;;1.80;;
61460;SDS011;47325;50.506;4.472;2022-11-03T06:22:55;5.50;;;1.70;;
61460;SDS011;47325;50.506;4.472;2022-11-03T06:28:39;4.90;;;1.70;;
61460;SDS011;47325;50.506;4.472;2022-11-03T06:40:33;6.10;;;1.90;;
61460;SDS011;47325;50.506;4.472;2022-11-03T06:46:24;3.50;;;1.60;;
61460;SDS011;47325;50.506;4.472;2022-11-03T06:52:21;5.10;;;1.80;;
61460;SDS011;47325;50.506;4.472;2022-11-03T06:58:11;3.90;;;1.70;;
61460;SDS011;47325;50.506;4.472;2022-11-03T07:04:10;4.50;;;1.60;;
61460;SDS011;47325;50.506;4.472;2022-11-03T07:09:53;4.00;;;1.60;;
61460;SDS011;47325;50.506;4.472;2022-11-03T07:15:37;3.80;;;1.50;;
61460;SDS011;47325;50.506;4.472;2022-11-03T07:21:27;6.60;;;1.70;;
61460;SDS011;47325;50.506;4.472;2022-11-03T07:27:18;4.60;;;1.70;;
61460;SDS011;47325;50.506;4.472;2022-11-03T07:33:15;4.30;;;1.80;;
61460;SDS011;47325;50.506;4.472;2022-11-03T07:39:07;5.40;;;1.70;;
61460;SDS011;47325;50.506;4.472;2022-11-03T07:44:56;4.80;;;1.70;;
61460;SDS011;47325;50.506;4.472;2022-11-03T07:50:46;5.20;;;1.60;;
61460;SDS011;47325;50.506;4.472;2022-11-03T07:56:36;4.60;;;1.70;;
61460;SDS011;47325;50.506;4.472;2022-11-03T08:02:29;4.10;;;1.40;;
61460;SDS011;47325;50.506;4.472;2022-11-03T08:08:18;5.10;;;1.80;;
61460;SDS011;47325;50.506;4.472;2022-11-03T08:14:10;6.60;;;1.70;;
61460;SDS011;47325;50.506;4.472;2022-11-03T08:20:05;5.40;;;1.50;;
61460;SDS011;47325;50.506;4.472;2022-11-03T08:25:52;3.90;;;1.70;;
61460;SDS011;47325;50.506;4.472;2022-11-03T08:31:39;3.70;;;1.50;;
61460;SDS011;47325;50.506;4.472;2022-11-03T08:37:29;5.70;;;1.60;;
61460;SDS011;47325;50.506;4.472;2022-11-03T08:43:18;3.30;;;1.90;;
61460;SDS011;47325;50.506;4.472;2022-11-03T08:49:03;4.10;;;1.60;;
61460;SDS011;47325;50.506;4.472;2022-11-03T08:54:48;4.20;;;1.50;;
61460;SDS011;47325;50.506;4.472;2022-11-03T09:00:40;4.70;;;1.60;;
61460;SDS011;47325;50.506;4.472;2022-11-03T09:06:27;4.10;;;1.60;;
61460;SDS011;47325;50.506;4.472;2022-11-03T09:12:13;4.20;;;1.70;;
61460;SDS011;47325;50.506;4.472;2022-11-03T09:18:04;3.50;;;1.60;;
61460;SDS011;47325;50.506;4.472;2022-11-03T09:23:57;4.90;;;1.50;;
61460;SDS011;47325;50.506;4.472;2022-11-03T09:29:49;3.60;;;1.50;;
61460;SDS011;47325;50.506;4.472;2022-11-03T09:35:59;5.10;;;1.60;;
61460;SDS011;47325;50.506;4.472;2022-11-03T09:41:54;5.90;;;1.70;;
61460;SDS011;47325;50.506;4.472;2022-11-03T09:47:55;4.20;;;1.60;;
61460;SDS011;47325;50.506;4.472;2022-11-03T09:53:46;3.80;;;1.40;;
61460;SDS011;47325;50.506;4.472;2022-11-03T09:59:40;4.30;;;1.40;;
61460;SDS011;47325;50.506;4.472;2022-11-03T10:05:26;3.80;;;1.30;;
61460;SDS011;47325;50.506;4.472;2022-11-03T10:11:23;4.40;;;1.60;;
61460;SDS011;47325;50.506;4.472;2022-11-03T10:17:13;4.80;;;1.50;;
61460;SDS011;47325;50.506;4.472;2022-11-03T10:22:57;3.10;;;1.40;;
61460;SDS011;47325;50.506;4.472;2022-11-03T10:28:41;3.70;;;1.40;;
61460;SDS011;47325;50.506;4.472;2022-11-03T10:34:38;3.90;;;1.30;;
61460;SDS011;47325;50.506;4.472;2022-11-03T10:40:36;3.80;;;1.50;;
61460;SDS011;47325;50.506;4.472;2022-11-03T10:46:54;3.50;;;1.40;;
61460;SDS011;47325;50.506;4.472;2022-11-03T10:52:34;3.90;;;1.50;;
61460;SDS011;47325;50.506;4.472;2022-11-03T10:58:26;3.20;;;1.40;;
61460;SDS011;47325;50.506;4.472;2022-11-03T11:04:23;3.30;;;1.40;;
61460;SDS011;47325;50.506;4.472;2022-11-03T11:10:15;3.50;;;1.40;;
61460;SDS011;47325;50.506;4.472;2022-11-03T11:16:00;3.60;;;1.60;;
61460;SDS011;47325;50.506;4.472;2022-11-03T11:22:11;5.10;;;1.50;;
61460;SDS011;47325;50.506;4.472;2022-11-03T11:28:15;3.40;;;1.40;;
61460;SDS011;47325;50.506;4.472;2022-11-03T11:40:13;3.20;;;1.60;;
61460;SDS011;47325;50.506;4.472;2022-11-03T11:51:57;3.80;;;1.40;;
61460;SDS011;47325;50.506;4.472;2022-11-03T11:57:56;3.10;;;1.50;;
61460;SDS011;47325;50.506;4.472;2022-11-03T12:03:51;5.20;;;1.30;;
61460;SDS011;47325;50.506;4.472;2022-11-03T12:09:39;3.20;;;1.40;;
61460;SDS011;47325;50.506;4.472;2022-11-03T12:27:43;3.50;;;1.30;;
61460;SDS011;47325;50.506;4.472;2022-11-03T12:33:28;3.00;;;1.20;;
61460;SDS011;47325;50.506;4.472;2022-11-03T12:39:18;3.50;;;1.30;;
61460;SDS011;47325;50.506;4.472;2022-11-03T12:45:09;4.70;;;1.20;;
61460;SDS011;47325;50.506;4.472;2022-11-03T12:50:55;3.20;;;1.20;;
61460;SDS011;47325;50.506;4.472;2022-11-03T12:56:43;2.70;;;1.30;;
61460;SDS011;47325;50.506;4.472;2022-11-03T13:02:40;3.40;;;1.30;;
61460;SDS011;47325;50.506;4.472;2022-11-03T13:08:30;2.40;;;1.20;;
61460;SDS011;47325;50.506;4.472;2022-11-03T13:14:21;3.50;;;1.30;;
61460;SDS011;47325;50.506;4.472;2022-11-03T13:20:10;3.00;;;1.30;;
61460;SDS011;47325;50.506;4.472;2022-11-03T13:25:54;2.20;;;1.30;;
61460;SDS011;47325;50.506;4.472;2022-11-03T13:31:40;3.60;;;1.30;;
61460;SDS011;47325;50.506;4.472;2022-11-03T13:37:31;2.30;;;1.30;;
61460;SDS011;47325;50.506;4.472;2022-11-03T13:43:15;2.40;;;1.50;;
61460;SDS011;47325;50.506;4.472;2022-11-03T13:48:59;3.90;;;1.40;;
61460;SDS011;47325;50.506;4.472;2022-11-03T13:55:14;3.50;;;1.40;;
61460;SDS011;47325;50.506;4.472;2022-11-03T14:01:30;3.10;;;1.40;;
61460;SDS011;47325;50.506;4.472;2022-11-03T14:07:21;3.20;;;1.40;;
61460;SDS011;47325;50.506;4.472;2022-11-03T14:13:08;2.30;;;1.40;;
61460;SDS011;47325;50.506;4.472;2022-11-03T14:18:53;3.60;;;1.40;;
61460;SDS011;47325;50.506;4.472;2022-11-03T14:24:43;4.30;;;1.50;;
61460;SDS011;47325;50.506;4.472;2022-11-03T14:30:32;4.30;;;1.60;;
61460;SDS011;47325;50.506;4.472;2022-11-03T14:36:24;3.00;;;1.60;;
61460;SDS011;47325;50.506;4.472;2022-11-03T14:42:14;3.50;;;1.60;;
61460;SDS011;47325;50.506;4.472;2022-11-03T14:48:13;2.90;;;1.40;;
61460;SDS011;47325;50.506;4.472;2022-11-03T14:54:07;2.90;;;1.40;;
61460;SDS011;47325;50.506;4.472;2022-11-03T14:59:54;2.70;;;1.60;;
61460;SDS011;47325;50.506;4.472;2022-11-03T15:05:40;3.20;;;1.80;;
61460;SDS011;47325;50.506;4.472;2022-11-03T15:11:32;3.60;;;1.70;;
61460;SDS011;47325;50.506;4.472;2022-11-03T15:17:18;3.30;;;1.70;;
61460;SDS011;47325;50.506;4.472;2022-11-03T15:23:09;2.90;;;1.60;;
61460;SDS011;47325;50.506;4.472;2022-11-03T15:29:14;3.20;;;1.70;;
61460;SDS011;47325;50.506;4.472;2022-11-03T15:35:04;4.00;;;1.90;;
61460;SDS011;47325;50.506;4.472;2022-11-03T15:40:48;4.30;;;1.80;;
61460;SDS011;47325;50.506;4.472;2022-11-03T15:46:38;3.00;;;1.80;;
61460;SDS011;47325;50.506;4.472;2022-11-03T15:52:23;4.30;;;2.00;;
61460;SDS011;47325;50.506;4.472;2022-11-03T15:58:07;3.00;;;1.80;;
61460;SDS011;47325;50.506;4.472;2022-11-03T16:03:59;3.60;;;1.80;;
61460;SDS011;47325;50.506;4.472;2022-11-03T16:09:53;3.20;;;1.90;;
61460;SDS011;47325;50.506;4.472;2022-11-03T16:15:49;4.40;;;1.90;;
61460;SDS011;47325;50.506;4.472;2022-11-03T16:21:33;4.50;;;2.00;;
61460;SDS011;47325;50.506;4.472;2022-11-03T16:27:18;4.90;;;1.70;;
61460;SDS011;47325;50.506;4.472;2022-11-03T16:33:03;3.70;;;1.80;;
61460;SDS011;47325;50.506;4.472;2022-11-03T16:38:56;3.40;;;1.80;;
61460;SDS011;47325;50.506;4.472;2022-11-03T16:44:46;3.80;;;1.80;;
61460;SDS011;47325;50.506;4.472;2022-11-03T16:50:37;3.00;;;1.90;;
61460;SDS011;47325;50.506;4.472;2022-11-03T16:56:39;3.20;;;1.80;;
61460;SDS011;47325;50.506;4.472;2022-11-03T17:02:24;3.20;;;2.00;;
61460;SDS011;47325;50.506;4.472;2022-11-03T17:08:08;2.90;;;1.80;;
61460;SDS011;47325;50.506;4.472;2022-11-03T17:14:12;2.90;;;1.80;;
61460;SDS011;47325;50.506;4.472;2022-11-03T17:20:03;2.70;;;1.80;;
61460;SDS011;47325;50.506;4.472;2022-11-03T17:25:47;3.50;;;1.90;;
61460;SDS011;47325;50.506;4.472;2022-11-03T17:31:35;2.90;;;1.70;;
61460;SDS011;47325;50.506;4.472;2022-11-03T17:37:26;3.40;;;1.80;;
61460;SDS011;47325;50.506;4.472;2022-11-03T17:43:22;3.10;;;1.70;;
61460;SDS011;47325;50.506;4.472;2022-11-03T17:49:19;3.60;;;1.80;;
61460;SDS011;47325;50.506;4.472;2022-11-03T17:55:12;2.30;;;1.70;;
61460;SDS011;47325;50.506;4.472;2022-11-03T18:00:59;2.90;;;1.70;;
61460;SDS011;47325;50.506;4.472;2022-11-03T18:06:44;2.70;;;1.80;;
61460;SDS011;47325;50.506;4.472;2022-11-03T18:12:34;5.10;;;2.00;;
61460;SDS011;47325;50.506;4.472;2022-11-03T18:18:28;2.10;;;1.50;;
61460;SDS011;47325;50.506;4.472;2022-11-03T18:24:15;3.00;;;1.60;;
61460;SDS011;47325;50.506;4.472;2022-11-03T18:29:59;5.40;;;1.60;;
61460;SDS011;47325;50.506;4.472;2022-11-03T18:35:47;2.90;;;1.60;;
61460;SDS011;47325;50.506;4.472;2022-11-03T18:41:32;3.50;;;1.60;;
61460;SDS011;47325;50.506;4.472;2022-11-03T18:47:22;2.80;;;1.60;;
61460;SDS011;47325;50.506;4.472;2022-11-03T18:53:08;3.40;;;1.60;;
61460;SDS011;47325;50.506;4.472;2022-11-03T18:59:04;2.80;;;1.50;;
61460;SDS011;47325;50.506;4.472;2022-11-03T19:04:53;2.60;;;1.60;;
61460;SDS011;47325;50.506;4.472;2022-11-03T19:10:37;3.70;;;1.70;;
61460;SDS011;47325;50.506;4.472;2022-11-03T19:16:23;2.70;;;1.70;;
61460;SDS011;47325;50.506;4.472;2022-11-03T19:22:11;2.70;;;1.70;;
61460;SDS011;47325;50.506;4.472;2022-11-03T19:28:07;7.40;;;1.80;;
61460;SDS011;47325;50.506;4.472;2022-11-03T19:33:59;5.00;;;1.70;;
61460;SDS011;47325;50.506;4.472;2022-11-03T19:39:45;1.90;;;1.40;;
61460;SDS011;47325;50.506;4.472;2022-11-03T19:45:35;3.20;;;1.70;;
61460;SDS011;47325;50.506;4.472;2022-11-03T19:51:19;2.70;;;1.60;;
61460;SDS011;47325;50.506;4.472;2022-11-03T19:57:13;4.00;;;1.50;;
61460;SDS011;47325;50.506;4.472;2022-11-03T20:03:11;1.90;;;1.20;;
61460;SDS011;47325;50.506;4.472;2022-11-03T20:09:01;2.90;;;1.50;;
61460;SDS011;47325;50.506;4.472;2022-11-03T20:14:51;2.00;;;1.40;;
61460;SDS011;47325;50.506;4.472;2022-11-03T20:20:36;2.10;;;1.50;;
61460;SDS011;47325;50.506;4.472;2022-11-03T20:26:23;3.60;;;1.50;;
61460;SDS011;47325;50.506;4.472;2022-11-03T20:32:20;2.30;;;1.60;;
61460;SDS011;47325;50.506;4.472;2022-11-03T20:38:04;2.00;;;1.50;;
61460;SDS011;47325;50.506;4.472;2022-11-03T20:43:50;1.90;;;1.30;;
61460;SDS011;47325;50.506;4.472;2022-11-03T20:49:35;4.10;;;1.70;;
61460;SDS011;47325;50.506;4.472;2022-11-03T20:55:20;2.80;;;1.40;;
61460;SDS011;47325;50.506;4.472;2022-11-03T21:01:08;2.50;;;1.50;;
61460;SDS011;47325;50.506;4.472;2022-11-03T21:07:02;2.10;;;1.40;;
61460;SDS011;47325;50.506;4.472;2022-11-03T21:12:54;3.10;;;1.40;;
61460;SDS011;47325;50.506;4.472;2022-11-03T21:18:44;2.80;;;1.40;;
61460;SDS011;47325;50.506;4.472;2022-11-03T21:30:29;2.00;;;1.30;;
61460;SDS011;47325;50.506;4.472;2022-11-03T21:36:23;2.70;;;1.20;;
61460;SDS011;47325;50.506;4.472;2022-11-03T21:42:15;1.50;;;1.00;;
61460;SDS011;47325;50.506;4.472;2022-11-03T21:48:05;1.50;;;1.10;;
61460;SDS011;47325;50.506;4.472;2022-11-03T21:54:06;2.30;;;1.20;;
61460;SDS011;47325;50.506;4.472;2022-11-03T21:59:56;1.90;;;1.00;;
61460;SDS011;47325;50.506;4.472;2022-11-03T22:05:46;2.60;;;1.00;;
61460;SDS011;47325;50.506;4.472;2022-11-03T22:11:51;2.20;;;1.10;;
61460;SDS011;47325;50.506;4.472;2022-11-03T22:17:46;2.00;;;1.10;;
61460;SDS011;47325;50.506;4.472;2022-11-03T22:23:47;1.80;;;1.10;;
61460;SDS011;47325;50.506;4.472;2022-11-03T22:29:33;1.60;;;1.10;;
61460;SDS011;47325;50.506;4.472;2022-11-03T22:35:22;1.70;;;1.10;;
61460;SDS011;47325;50.506;4.472;2022-11-03T22:41:08;2.60;;;1.10;;
61460;SDS011;47325;50.506;4.472;2022-11-03T22:46:56;1.70;;;1.00;;
61460;SDS011;47325;50.506;4.472;2022-11-03T22:52:46;2.70;;;1.10;;
61460;SDS011;47325;50.506;4.472;2022-11-03T22:58:36;2.20;;;1.00;;
61460;SDS011;47325;50.506;4.472;2022-11-03T23:04:28;1.70;;;1.10;;
61460;SDS011;47325;50.506;4.472;2022-11-03T23:10:12;2.30;;;1.20;;
61460;SDS011;47325;50.506;4.472;2022-11-03T23:16:05;1.90;;;1.10;;
61460;SDS011;47325;50.506;4.472;2022-11-03T23:21:55;2.10;;;1.10;;
61460;SDS011;47325;50.506;4.472;2022-11-03T23:27:45;2.00;;;1.10;;
61460;SDS011;47325;50.506;4.472;2022-11-03T23:33:31;2.50;;;1.00;;
61460;SDS011;47325;50.506;4.472;2022-11-03T23:39:22;3.60;;;1.30;;
61460;SDS011;47325;50.506;4.472;2022-11-03T23:45:11;4.80;;;1.50;;
61460;SDS011;47325;50.506;4.472;2022-11-03T23:51:06;1.90;;;1.20;;
61460;SDS011;47325;50.506;4.472;2022-11-03T23:57:01;2.90;;;1.00;;
